Home > Products > Valid Products > TAF

000
FTUS45 KGJT 271739
TAFGJT
TAF
KGJT 271739Z 2718/2818 21008KT P6SM FEW020 OVC045
      TEMPO 2718/2721 -SHRASN OVC035
     FM272100 33005KT P6SM VCSH SCT025 OVC050
      TEMPO 2721/2723 -SHRA
     FM280400 05004KT P6SM SCT050 BKN080
     FM280900 12005KT P6SM SCT050 OVC100
     FM281300 13005KT P6SM VCSH OVC100=



000
FTUS45 KGJT 271739
TAFGJT
TAF
KGJT 271739Z 2718/2818 21008KT P6SM FEW020 OVC045
      TEMPO 2718/2721 -SHRASN OVC035
     FM272100 33005KT P6SM VCSH SCT025 OVC050
      TEMPO 2721/2723 -SHRA
     FM280400 05004KT P6SM SCT050 BKN080
     FM280900 12005KT P6SM SCT050 OVC100
     FM281300 13005KT P6SM VCSH OVC100=



000
FTUS45 KGJT 271739
TAFGJT
TAF
KGJT 271739Z 2718/2818 21008KT P6SM FEW020 OVC045
      TEMPO 2718/2721 -SHRASN OVC035
     FM272100 33005KT P6SM VCSH SCT025 OVC050
      TEMPO 2721/2723 -SHRA
     FM280400 05004KT P6SM SCT050 BKN080
     FM280900 12005KT P6SM SCT050 OVC100
     FM281300 13005KT P6SM VCSH OVC100=



000
FTUS45 KGJT 271739
TAFGJT
TAF
KGJT 271739Z 2718/2818 21008KT P6SM FEW020 OVC045
      TEMPO 2718/2721 -SHRASN OVC035
     FM272100 33005KT P6SM VCSH SCT025 OVC050
      TEMPO 2721/2723 -SHRA
     FM280400 05004KT P6SM SCT050 BKN080
     FM280900 12005KT P6SM SCT050 OVC100
     FM281300 13005KT P6SM VCSH OVC100=



000
FTUS45 KGJT 271643 AAB
TAFGJT
TAF AMD
KGJT 271643Z 2717/2812 24006KT 5SM -SN BR SCT028 OVC035
      TEMPO 2717/2719 3SM -SN BR OVC025
     FM271900 29005KT P6SM VCSH SCT025 OVC050
      TEMPO 2719/2721 5SM -SHRASN BR BKN030 OVC040
     FM272100 33005KT P6SM VCSH BKN050 OVC070
     FM280400 05004KT P6SM BKN080
     FM280900 12005KT P6SM OVC050=



000
FTUS45 KGJT 271643 AAB
TAFGJT
TAF AMD
KGJT 271643Z 2717/2812 24006KT 5SM -SN BR SCT028 OVC035
      TEMPO 2717/2719 3SM -SN BR OVC025
     FM271900 29005KT P6SM VCSH SCT025 OVC050
      TEMPO 2719/2721 5SM -SHRASN BR BKN030 OVC040
     FM272100 33005KT P6SM VCSH BKN050 OVC070
     FM280400 05004KT P6SM BKN080
     FM280900 12005KT P6SM OVC050=



000
FTUS45 KGJT 271436 AAC
TAFGJT
TAF AMD
KGJT 271436Z 2715/2812 22004KT 2SM -SN BR BKN017 OVC035
      TEMPO 2715/2716 6SM -SN OVC025
     FM271600 29004KT P6SM VCSH SCT025 OVC040
      TEMPO 2716/2718 5SM -SN BR OVC025
     FM272100 33005KT P6SM VCSH BKN050 OVC070
     FM280400 05004KT P6SM BKN080
     FM280900 12005KT P6SM OVC050=



000
FTUS45 KGJT 271436 AAC
TAFGJT
TAF AMD
KGJT 271436Z 2715/2812 22004KT 2SM -SN BR BKN017 OVC035
      TEMPO 2715/2716 6SM -SN OVC025
     FM271600 29004KT P6SM VCSH SCT025 OVC040
      TEMPO 2716/2718 5SM -SN BR OVC025
     FM272100 33005KT P6SM VCSH BKN050 OVC070
     FM280400 05004KT P6SM BKN080
     FM280900 12005KT P6SM OVC050=



000
FTUS45 KGJT 271436 AAC
TAFGJT
TAF AMD
KGJT 271436Z 2715/2812 22004KT 2SM -SN BR BKN017 OVC035
      TEMPO 2715/2716 6SM -SN OVC025
     FM271600 29004KT P6SM VCSH SCT025 OVC040
      TEMPO 2716/2718 5SM -SN BR OVC025
     FM272100 33005KT P6SM VCSH BKN050 OVC070
     FM280400 05004KT P6SM BKN080
     FM280900 12005KT P6SM OVC050=



000
FTUS45 KGJT 271436 AAC
TAFGJT
TAF AMD
KGJT 271436Z 2715/2812 22004KT 2SM -SN BR BKN017 OVC035
      TEMPO 2715/2716 6SM -SN OVC025
     FM271600 29004KT P6SM VCSH SCT025 OVC040
      TEMPO 2716/2718 5SM -SN BR OVC025
     FM272100 33005KT P6SM VCSH BKN050 OVC070
     FM280400 05004KT P6SM BKN080
     FM280900 12005KT P6SM OVC050=



000
FTUS45 KGJT 271319 AAB
TAFGJT
TAF AMD
KGJT 271319Z 2713/2812 13006KT 6SM -SN BR FEW004 OVC017
     FM271400 14004KT P6SM VCSH OVC020
     FM272100 33005KT P6SM VCSH BKN050 OVC070
     FM280400 05004KT P6SM BKN080
     FM280900 12005KT P6SM OVC050=



000
FTUS45 KGJT 271319 AAB
TAFGJT
TAF AMD
KGJT 271319Z 2713/2812 13006KT 6SM -SN BR FEW004 OVC017
     FM271400 14004KT P6SM VCSH OVC020
     FM272100 33005KT P6SM VCSH BKN050 OVC070
     FM280400 05004KT P6SM BKN080
     FM280900 12005KT P6SM OVC050=



000
FTUS45 KGJT 271319 AAB
TAFGJT
TAF AMD
KGJT 271319Z 2713/2812 13006KT 6SM -SN BR FEW004 OVC017
     FM271400 14004KT P6SM VCSH OVC020
     FM272100 33005KT P6SM VCSH BKN050 OVC070
     FM280400 05004KT P6SM BKN080
     FM280900 12005KT P6SM OVC050=



000
FTUS45 KGJT 271319 AAB
TAFGJT
TAF AMD
KGJT 271319Z 2713/2812 13006KT 6SM -SN BR FEW004 OVC017
     FM271400 14004KT P6SM VCSH OVC020
     FM272100 33005KT P6SM VCSH BKN050 OVC070
     FM280400 05004KT P6SM BKN080
     FM280900 12005KT P6SM OVC050=



000
FTUS45 KGJT 271219 AAA
TAFGJT
TAF AMD
KGJT 271219Z 2712/2812 11006KT P6SM VCSH BKN004 OVC009
     FM271400 14004KT P6SM VCSH OVC020
     FM272100 33005KT P6SM VCSH BKN050 OVC070
     FM280400 05004KT P6SM BKN080
     FM280900 12005KT P6SM OVC050=



000
FTUS45 KGJT 271219 AAA
TAFGJT
TAF AMD
KGJT 271219Z 2712/2812 11006KT P6SM VCSH BKN004 OVC009
     FM271400 14004KT P6SM VCSH OVC020
     FM272100 33005KT P6SM VCSH BKN050 OVC070
     FM280400 05004KT P6SM BKN080
     FM280900 12005KT P6SM OVC050=



000
FTUS45 KGJT 271126
TAFGJT
TAF
KGJT 271126Z 2712/2812 10003KT 4SM -SN BR VCSH FEW004 BKN014 OVC028
     FM271400 14004KT P6SM VCSH OVC020
     FM272100 33005KT P6SM VCSH BKN050 OVC070
     FM280400 05004KT P6SM BKN080
     FM280900 12005KT P6SM OVC050=



000
FTUS45 KGJT 271126
TAFGJT
TAF
KGJT 271126Z 2712/2812 10003KT 4SM -SN BR VCSH FEW004 BKN014 OVC028
     FM271400 14004KT P6SM VCSH OVC020
     FM272100 33005KT P6SM VCSH BKN050 OVC070
     FM280400 05004KT P6SM BKN080
     FM280900 12005KT P6SM OVC050=



000
FTUS45 KGJT 270939 AAC
TAFGJT
TAF AMD
KGJT 270939Z 2710/2806 11004KT P6SM VCSH SCT025 OVC050
      TEMPO 2710/2711 2SM -SN BR OVC030
     FM271400 14004KT P6SM BKN050 OVC070
     FM272100 33005KT P6SM VCSH BKN050 OVC070
     FM280400 05004KT P6SM BKN080=



000
FTUS45 KGJT 270939 AAC
TAFGJT
TAF AMD
KGJT 270939Z 2710/2806 11004KT P6SM VCSH SCT025 OVC050
      TEMPO 2710/2711 2SM -SN BR OVC030
     FM271400 14004KT P6SM BKN050 OVC070
     FM272100 33005KT P6SM VCSH BKN050 OVC070
     FM280400 05004KT P6SM BKN080=



000
FTUS45 KGJT 270921 AAB
TAFGJT
TAF AMD
KGJT 270921Z 2709/2806 11004KT P6SM VCSH SCT025 OVC050
      TEMPO 2709/2711 P6SM -SN OVC050
     FM271400 14004KT P6SM BKN050 OVC070
     FM272100 33005KT P6SM VCSH BKN050 OVC070
     FM280400 05004KT P6SM BKN080=



000
FTUS45 KGJT 270921 AAB
TAFGJT
TAF AMD
KGJT 270921Z 2709/2806 11004KT P6SM VCSH SCT025 OVC050
      TEMPO 2709/2711 P6SM -SN OVC050
     FM271400 14004KT P6SM BKN050 OVC070
     FM272100 33005KT P6SM VCSH BKN050 OVC070
     FM280400 05004KT P6SM BKN080=



000
FTUS45 KGJT 270539
TAFGJT
TAF
KGJT 270539Z 2706/2806 11004KT P6SM VCSH SCT025 OVC050
      TEMPO 2706/2708 P6SM -SNRA OVC050
     FM271400 14004KT P6SM BKN050 OVC070
     FM272100 33005KT P6SM VCSH BKN050 OVC070
     FM280400 05004KT P6SM BKN080=



000
FTUS45 KGJT 270539
TAFGJT
TAF
KGJT 270539Z 2706/2806 11004KT P6SM VCSH SCT025 OVC050
      TEMPO 2706/2708 P6SM -SNRA OVC050
     FM271400 14004KT P6SM BKN050 OVC070
     FM272100 33005KT P6SM VCSH BKN050 OVC070
     FM280400 05004KT P6SM BKN080=



000
FTUS45 KGJT 270109 AAA
TAFGJT
TAF AMD
KGJT 270109Z 2701/2724 06005KT P6SM SCT060 OVC080
     FM270300 11004KT P6SM VCSH SCT025 OVC050
     FM271400 14004KT P6SM BKN050 OVC070
     FM272100 33005KT P6SM VCSH BKN050 OVC070=



000
FTUS45 KGJT 262350
TAFGJT
TAF
KGJT 262350Z 2700/2724 06005KT P6SM SCT060 OVC080
     FM270300 04004KT P6SM SCT070 BKN100
     FM270600 09004KT P6SM VCSH SCT030 BKN050
      TEMPO 2709/2713 4SM -SN SCT020 BKN030
     FM271400 12008KT P6SM VCSH SCT030 BKN050=



000
FTUS45 KGJT 262350
TAFGJT
TAF
KGJT 262350Z 2700/2724 06005KT P6SM SCT060 OVC080
     FM270300 04004KT P6SM SCT070 BKN100
     FM270600 09004KT P6SM VCSH SCT030 BKN050
      TEMPO 2709/2713 4SM -SN SCT020 BKN030
     FM271400 12008KT P6SM VCSH SCT030 BKN050=



000
FTUS45 KGJT 262350
TAFGJT
TAF
KGJT 262350Z 2700/2724 06005KT P6SM SCT060 OVC080
     FM270300 04004KT P6SM SCT070 BKN100
     FM270600 09004KT P6SM VCSH SCT030 BKN050
      TEMPO 2709/2713 4SM -SN SCT020 BKN030
     FM271400 12008KT P6SM VCSH SCT030 BKN050=



000
FTUS45 KGJT 262350
TAFGJT
TAF
KGJT 262350Z 2700/2724 06005KT P6SM SCT060 OVC080
     FM270300 04004KT P6SM SCT070 BKN100
     FM270600 09004KT P6SM VCSH SCT030 BKN050
      TEMPO 2709/2713 4SM -SN SCT020 BKN030
     FM271400 12008KT P6SM VCSH SCT030 BKN050=



000
FTUS45 KGJT 261737
TAFGJT
TAF
KGJT 261737Z 2618/2718 12008KT P6SM FEW120 BKN250
     FM262000 30005KT P6SM SCT100 BKN180
     FM270300 04004KT P6SM SCT070 BKN100
     FM270600 09004KT P6SM VCSH SCT030 BKN050
      TEMPO 2709/2713 4SM -SN SCT020 BKN030
     FM271400 12008KT P6SM VCSH SCT030 BKN050=



000
FTUS45 KGJT 261737
TAFGJT
TAF
KGJT 261737Z 2618/2718 12008KT P6SM FEW120 BKN250
     FM262000 30005KT P6SM SCT100 BKN180
     FM270300 04004KT P6SM SCT070 BKN100
     FM270600 09004KT P6SM VCSH SCT030 BKN050
      TEMPO 2709/2713 4SM -SN SCT020 BKN030
     FM271400 12008KT P6SM VCSH SCT030 BKN050=



000
FTUS45 KGJT 261132
TAFGJT
TAF
KGJT 261132Z 2612/2712 11005KT P6SM FEW120 BKN250
     FM262000 30005KT P6SM SCT100 BKN180
     FM270300 04004KT P6SM SCT070 BKN100
     FM270600 09004KT P6SM VCSH SCT030 BKN050=



000
FTUS45 KGJT 261132
TAFGJT
TAF
KGJT 261132Z 2612/2712 11005KT P6SM FEW120 BKN250
     FM262000 30005KT P6SM SCT100 BKN180
     FM270300 04004KT P6SM SCT070 BKN100
     FM270600 09004KT P6SM VCSH SCT030 BKN050=



000
FTUS45 KGJT 261132
TAFGJT
TAF
KGJT 261132Z 2612/2712 11005KT P6SM FEW120 BKN250
     FM262000 30005KT P6SM SCT100 BKN180
     FM270300 04004KT P6SM SCT070 BKN100
     FM270600 09004KT P6SM VCSH SCT030 BKN050=



000
FTUS45 KGJT 261132
TAFGJT
TAF
KGJT 261132Z 2612/2712 11005KT P6SM FEW120 BKN250
     FM262000 30005KT P6SM SCT100 BKN180
     FM270300 04004KT P6SM SCT070 BKN100
     FM270600 09004KT P6SM VCSH SCT030 BKN050=



000
FTUS45 KGJT 260537
TAFGJT
TAF
KGJT 260537Z 2606/2706 09007KT P6SM FEW120 SCT250
     FM261500 13004KT P6SM BKN200
     FM270300 35005KT P6SM VCSH SCT030 BKN050=



000
FTUS45 KGJT 260537
TAFGJT
TAF
KGJT 260537Z 2606/2706 09007KT P6SM FEW120 SCT250
     FM261500 13004KT P6SM BKN200
     FM270300 35005KT P6SM VCSH SCT030 BKN050=



000
FTUS45 KGJT 260537
TAFGJT
TAF
KGJT 260537Z 2606/2706 09007KT P6SM FEW120 SCT250
     FM261500 13004KT P6SM BKN200
     FM270300 35005KT P6SM VCSH SCT030 BKN050=



000
FTUS45 KGJT 260537
TAFGJT
TAF
KGJT 260537Z 2606/2706 09007KT P6SM FEW120 SCT250
     FM261500 13004KT P6SM BKN200
     FM270300 35005KT P6SM VCSH SCT030 BKN050=



000
FTUS45 KGJT 252332
TAFGJT
TAF
KGJT 252332Z 2600/2624 31006KT P6SM VCSH SCT070 BKN200
      TEMPO 2601/2603 31010G20KT 5SM -SHSN BKN070
     FM260300 06007KT P6SM SCT080 BKN120
     FM260600 09007KT P6SM FEW120 SCT250
     FM261500 13004KT P6SM BKN200
     FM262100 35005KT P6SM SCT080 BKN120=



000
FTUS45 KGJT 252332
TAFGJT
TAF
KGJT 252332Z 2600/2624 31006KT P6SM VCSH SCT070 BKN200
      TEMPO 2601/2603 31010G20KT 5SM -SHSN BKN070
     FM260300 06007KT P6SM SCT080 BKN120
     FM260600 09007KT P6SM FEW120 SCT250
     FM261500 13004KT P6SM BKN200
     FM262100 35005KT P6SM SCT080 BKN120=



000
FTUS45 KGJT 252332
TAFGJT
TAF
KGJT 252332Z 2600/2624 31006KT P6SM VCSH SCT070 BKN200
      TEMPO 2601/2603 31010G20KT 5SM -SHSN BKN070
     FM260300 06007KT P6SM SCT080 BKN120
     FM260600 09007KT P6SM FEW120 SCT250
     FM261500 13004KT P6SM BKN200
     FM262100 35005KT P6SM SCT080 BKN120=



000
FTUS45 KGJT 252332
TAFGJT
TAF
KGJT 252332Z 2600/2624 31006KT P6SM VCSH SCT070 BKN200
      TEMPO 2601/2603 31010G20KT 5SM -SHSN BKN070
     FM260300 06007KT P6SM SCT080 BKN120
     FM260600 09007KT P6SM FEW120 SCT250
     FM261500 13004KT P6SM BKN200
     FM262100 35005KT P6SM SCT080 BKN120=



000
FTUS45 KGJT 251724
TAFGJT
TAF
KGJT 251724Z 2518/2618 16004KT P6SM BKN070 BKN180
     FM252000 31006KT P6SM BKN070 BKN120
     FM260100 03005KT P6SM SCT100 SCT200
     FM260600 09006KT P6SM SCT250
     FM261500 13004KT P6SM BKN200=



000
FTUS45 KGJT 251138
TAFGJT
TAF
KGJT 251138Z 2512/2612 11008KT P6SM BKN100
     FM251600 13005KT P6SM BKN100 BKN200
     FM252000 31004KT P6SM OVC100
     FM260100 03005KT P6SM SCT100 SCT200
     FM260600 09006KT P6SM SCT250=



000
FTUS45 KGJT 251138
TAFGJT
TAF
KGJT 251138Z 2512/2612 11008KT P6SM BKN100
     FM251600 13005KT P6SM BKN100 BKN200
     FM252000 31004KT P6SM OVC100
     FM260100 03005KT P6SM SCT100 SCT200
     FM260600 09006KT P6SM SCT250=



000
FTUS45 KGJT 251138
TAFGJT
TAF
KGJT 251138Z 2512/2612 11008KT P6SM BKN100
     FM251600 13005KT P6SM BKN100 BKN200
     FM252000 31004KT P6SM OVC100
     FM260100 03005KT P6SM SCT100 SCT200
     FM260600 09006KT P6SM SCT250=



000
FTUS45 KGJT 250520
TAFGJT
TAF
KGJT 250520Z 2506/2606 10005KT P6SM SCT250
     FM251000 13005KT P6SM SCT070 BKN200
     FM251800 30007KT P6SM BKN120
     FM252000 27010G15KT P6SM OVC100
     FM260000 08007KT P6SM BKN100=



000
FTUS45 KGJT 242333
TAFGJT
TAF
KGJT 242333Z 2500/2524 13003KT P6SM SKC
     FM250200 03004KT P6SM SKC
     FM250600 10005KT P6SM SCT250
     FM251000 13005KT P6SM SCT070 BKN200
     FM251800 30007KT P6SM BKN120=



000
FTUS45 KGJT 242333
TAFGJT
TAF
KGJT 242333Z 2500/2524 13003KT P6SM SKC
     FM250200 03004KT P6SM SKC
     FM250600 10005KT P6SM SCT250
     FM251000 13005KT P6SM SCT070 BKN200
     FM251800 30007KT P6SM BKN120=



    US Dept of Commerce
    National Oceanic and Atmospheric Administration
    National Weather Service
    1325 East West Highway
    Silver Spring, MD 20910
    Page Author: NWS Internet Services Team
Disclaimer
Information Quality
Credits
Glossary
Privacy Policy
Freedom of Information Act (FOIA)
About Us
Career Opportunities